Time;durP1;ratioP1;P1;durP2;ratioP2;P2;SDS_P1;SDS_P2;PMS_P1;PMS_P2;Temp;Humidity;BMP_temperature;BMP_pressure;BME280_temperature;BME280_humidity;BME280_pressure;Samples;Min_cycle;Max_cycle;Signal;HPM_P1;HPM_P2
2022/05/17 00:03:13;;;;;;;7.05;3.80;;;;;;;;;;6216546;28;20894;-73
2022/05/17 00:06:34;;;;;;;5.72;4.30;;;;;;;;;;6218125;28;20228;-73
2022/05/17 00:09:54;;;;;;;4.45;3.83;;;;;;;;;;6213328;28;20228;-73
2022/05/17 00:13:15;;;;;;;5.63;4.13;;;;;;;;;;6217431;28;20229;-73
2022/05/17 00:16:37;;;;;;;8.07;4.28;;;;;;;;;;6214134;28;20240;-73
2022/05/17 00:19:57;;;;;;;10.00;5.22;;;;;;;;;;6210244;28;20229;-74
2022/05/17 00:23:19;;;;;;;8.02;5.15;;;;;;;;;;6221793;28;20572;-73
2022/05/17 00:26:40;;;;;;;8.43;6.10;;;;;;;;;;6215707;28;20331;-72
2022/05/17 00:30:01;;;;;;;11.75;6.57;;;;;;;;;;6214185;28;20247;-74
2022/05/17 00:33:22;;;;;;;6.32;5.63;;;;;;;;;;6215194;28;20742;-73
2022/05/17 00:36:43;;;;;;;9.45;6.55;;;;;;;;;;6218368;28;20228;-75
2022/05/17 00:40:05;;;;;;;10.88;5.22;;;;;;;;;;6215816;28;20233;-73
2022/05/17 00:44:42;;;;;;;7.75;4.70;;;;;;;;;;6218004;28;20229;-72
2022/05/17 00:47:14;;;;;;;5.78;4.25;;;;;;;;;;6213987;28;20311;-73
2022/05/17 00:50:38;;;;;;;6.15;4.43;;;;;;;;;;6215887;28;20228;-72
2022/05/17 00:54:01;;;;;;;6.90;3.42;;;;;;;;;;6215398;28;20236;-73
2022/05/17 00:57:28;;;;;;;5.05;3.80;;;;;;;;;;6213003;28;20783;-73
2022/05/17 01:00:50;;;;;;;5.75;4.13;;;;;;;;;;6216924;28;20551;-73
2022/05/17 01:04:12;;;;;;;5.05;4.05;;;;;;;;;;6211414;28;20221;-73
2022/05/17 01:07:37;;;;;;;7.35;3.22;;;;;;;;;;6214078;28;20236;-73
2022/05/17 01:10:58;;;;;;;6.25;4.47;;;;;;;;;;6213879;28;20228;-74
2022/05/17 01:17:58;;;;;;;8.07;4.50;;;;;;;;;;6211237;28;20714;-72
2022/05/17 01:21:20;;;;;;;4.50;3.80;;;;;;;;;;6211344;28;20229;-73
2022/05/17 01:24:40;;;;;;;7.13;3.88;;;;;;;;;;6221240;28;20233;-73
2022/05/17 01:28:04;;;;;;;4.22;3.33;;;;;;;;;;6216720;28;20232;-73
2022/05/17 01:31:24;;;;;;;5.25;3.95;;;;;;;;;;6218803;28;20253;-73
2022/05/17 01:34:45;;;;;;;7.03;3.90;;;;;;;;;;6220999;28;20311;-74
2022/05/17 01:38:07;;;;;;;11.27;5.72;;;;;;;;;;6214057;28;20228;-74
2022/05/17 01:41:27;;;;;;;5.20;4.15;;;;;;;;;;6215605;28;20229;-74
2022/05/17 01:44:57;;;;;;;3.70;3.38;;;;;;;;;;6209872;28;20236;-74
2022/05/17 01:48:17;;;;;;;7.68;4.45;;;;;;;;;;6207493;28;20929;-74
2022/05/17 01:51:38;;;;;;;5.10;4.18;;;;;;;;;;6212555;28;20232;-74
2022/05/17 01:54:59;;;;;;;4.95;4.15;;;;;;;;;;6209825;28;20237;-74
2022/05/17 01:58:21;;;;;;;3.90;3.58;;;;;;;;;;6212044;28;20233;-74
2022/05/17 02:01:41;;;;;;;5.32;4.15;;;;;;;;;;6216524;28;20233;-75
2022/05/17 02:05:02;;;;;;;5.43;3.70;;;;;;;;;;6214100;28;20251;-75
2022/05/17 02:08:22;;;;;;;4.53;4.13;;;;;;;;;;6219440;28;20232;-74
2022/05/17 02:11:44;;;;;;;6.55;4.38;;;;;;;;;;6221042;28;20252;-74
2022/05/17 02:15:06;;;;;;;7.72;4.07;;;;;;;;;;6222683;28;20323;-74
2022/05/17 02:18:27;;;;;;;6.13;4.07;;;;;;;;;;6216617;28;20614;-74
2022/05/17 02:21:48;;;;;;;7.28;5.15;;;;;;;;;;6217049;28;21654;-75
2022/05/17 02:25:09;;;;;;;8.07;4.88;;;;;;;;;;6221025;28;20228;-75
2022/05/17 02:28:32;;;;;;;6.78;4.55;;;;;;;;;;6213656;28;20224;-74
2022/05/17 02:31:53;;;;;;;5.55;4.38;;;;;;;;;;6215981;28;20229;-73
2022/05/17 02:35:13;;;;;;;6.65;4.93;;;;;;;;;;6214892;28;20216;-73
2022/05/17 02:38:34;;;;;;;5.38;4.78;;;;;;;;;;6210856;28;20237;-74
2022/05/17 02:41:55;;;;;;;5.80;4.32;;;;;;;;;;6218837;28;20236;-73
2022/05/17 02:45:17;;;;;;;5.72;4.00;;;;;;;;;;6211954;28;20232;-74
2022/05/17 02:48:37;;;;;;;7.25;6.28;;;;;;;;;;6216218;28;20232;-74
2022/05/17 02:52:00;;;;;;;5.60;4.95;;;;;;;;;;6217530;28;20232;-74
2022/05/17 02:55:21;;;;;;;5.37;4.37;;;;;;;;;;6211710;28;20236;-72
2022/05/17 02:58:41;;;;;;;4.82;3.97;;;;;;;;;;6207714;28;20232;-71
2022/05/17 03:02:03;;;;;;;7.20;5.97;;;;;;;;;;6219463;28;20244;-71
2022/05/17 03:05:24;;;;;;;8.63;5.07;;;;;;;;;;6219201;28;21006;-71
2022/05/17 03:08:45;;;;;;;53.53;48.67;;;;;;;;;;6214473;28;20220;-71
2022/05/17 03:12:06;;;;;;;32.15;29.23;;;;;;;;;;6218389;28;20638;-71
2022/05/17 03:15:27;;;;;;;12.38;9.73;;;;;;;;;;6181162;28;1057268;-70
2022/05/17 03:18:50;;;;;;;7.35;6.72;;;;;;;;;;6220049;28;20676;-70
2022/05/17 03:22:11;;;;;;;8.48;6.40;;;;;;;;;;6224826;28;20240;-71
2022/05/17 03:25:32;;;;;;;7.38;5.47;;;;;;;;;;6225577;28;20228;-71
2022/05/17 03:28:52;;;;;;;8.52;6.57;;;;;;;;;;6218574;28;20297;-71
2022/05/17 03:32:13;;;;;;;8.15;6.35;;;;;;;;;;6216609;28;20736;-71
2022/05/17 03:35:36;;;;;;;6.57;5.93;;;;;;;;;;6220554;28;20240;-69
2022/05/17 03:38:56;;;;;;;8.30;6.50;;;;;;;;;;6217534;28;20241;-69
2022/05/17 03:42:17;;;;;;;8.63;7.07;;;;;;;;;;6217022;28;20236;-69
2022/05/17 03:45:38;;;;;;;9.47;7.97;;;;;;;;;;6207017;28;20236;-69
2022/05/17 03:49:00;;;;;;;9.90;7.43;;;;;;;;;;6213749;28;20228;-69
2022/05/17 03:52:26;;;;;;;9.83;7.40;;;;;;;;;;6217626;28;20233;-69
2022/05/17 03:55:46;;;;;;;7.10;6.40;;;;;;;;;;6220421;28;20591;-68
2022/05/17 03:59:07;;;;;;;10.43;6.97;;;;;;;;;;6218261;28;20236;-68
2022/05/17 04:02:28;;;;;;;8.97;7.10;;;;;;;;;;6217273;28;20228;-70
2022/05/17 04:05:48;;;;;;;8.70;7.37;;;;;;;;;;6218912;28;20241;-69
2022/05/17 04:09:10;;;;;;;7.70;6.90;;;;;;;;;;6212840;28;20259;-70
2022/05/17 04:12:31;;;;;;;9.87;7.80;;;;;;;;;;6220236;28;20232;-70
2022/05/17 04:15:51;;;;;;;10.97;8.33;;;;;;;;;;6218548;28;20237;-69
2022/05/17 04:19:14;;;;;;;8.87;8.00;;;;;;;;;;6213644;28;20232;-70
2022/05/17 04:22:35;;;;;;;8.77;7.73;;;;;;;;;;6216985;28;20229;-70
2022/05/17 04:25:57;;;;;;;8.10;6.43;;;;;;;;;;6217770;28;20229;-70
2022/05/17 04:29:18;;;;;;;9.40;7.80;;;;;;;;;;6219040;28;20232;-69
2022/05/17 04:32:38;;;;;;;12.60;10.60;;;;;;;;;;6217970;28;20220;-70
2022/05/17 04:35:59;;;;;;;9.47;8.57;;;;;;;;;;6217523;28;20233;-70
2022/05/17 04:39:20;;;;;;;9.50;8.60;;;;;;;;;;6216435;28;20243;-70
2022/05/17 04:42:44;;;;;;;13.37;9.20;;;;;;;;;;6217372;28;20236;-69
2022/05/17 04:46:04;;;;;;;11.70;8.90;;;;;;;;;;6215395;28;20224;-70
2022/05/17 04:49:25;;;;;;;12.23;9.70;;;;;;;;;;6214287;28;20232;-69
2022/05/17 04:52:47;;;;;;;10.90;9.60;;;;;;;;;;6217556;28;20244;-70
2022/05/17 04:56:07;;;;;;;12.68;10.02;;;;;;;;;;6214863;28;20236;-69
2022/05/17 04:59:30;;;;;;;11.17;10.03;;;;;;;;;;6215990;28;20344;-68
2022/05/17 05:02:51;;;;;;;11.53;9.47;;;;;;;;;;6212712;28;20606;-69
2022/05/17 05:06:11;;;;;;;11.95;9.82;;;;;;;;;;6216776;28;20319;-68
2022/05/17 05:09:32;;;;;;;10.70;7.80;;;;;;;;;;6215622;28;20224;-69
2022/05/17 05:12:52;;;;;;;9.93;8.65;;;;;;;;;;6216610;28;20236;-70
2022/05/17 05:16:14;;;;;;;11.20;8.90;;;;;;;;;;6214969;28;20256;-70
2022/05/17 05:19:35;;;;;;;9.60;8.70;;;;;;;;;;6213373;28;20232;-69
2022/05/17 05:22:55;;;;;;;10.37;9.20;;;;;;;;;;6214884;28;20574;-69
2022/05/17 05:26:17;;;;;;;12.57;10.27;;;;;;;;;;6218776;28;20229;-70
2022/05/17 05:29:37;;;;;;;12.73;9.77;;;;;;;;;;6221525;28;20217;-70
2022/05/17 05:32:59;;;;;;;12.57;9.83;;;;;;;;;;6220517;28;20225;-70
2022/05/17 05:36:20;;;;;;;12.20;10.90;;;;;;;;;;6218927;28;20669;-72
2022/05/17 05:39:40;;;;;;;9.73;8.77;;;;;;;;;;6217331;28;20232;-71
2022/05/17 05:43:01;;;;;;;13.40;10.05;;;;;;;;;;6216674;28;20315;-71
2022/05/17 05:46:21;;;;;;;12.82;11.48;;;;;;;;;;6214302;28;20248;-71
2022/05/17 05:49:44;;;;;;;12.23;11.13;;;;;;;;;;6199648;28;20232;-71
2022/05/17 05:53:06;;;;;;;13.80;12.50;;;;;;;;;;6210059;28;20236;-70
2022/05/17 05:56:26;;;;;;;12.27;10.97;;;;;;;;;;6215187;28;20232;-69
2022/05/17 05:59:47;;;;;;;14.13;12.65;;;;;;;;;;6208987;28;20322;-70
2022/05/17 06:03:08;;;;;;;12.38;11.27;;;;;;;;;;6204797;28;20232;-70
2022/05/17 06:06:30;;;;;;;12.98;10.68;;;;;;;;;;6210244;28;20256;-70
2022/05/17 06:09:50;;;;;;;12.00;10.90;;;;;;;;;;6207990;28;20220;-71
2022/05/17 06:13:13;;;;;;;12.63;11.32;;;;;;;;;;6214333;28;20240;-70
2022/05/17 06:16:34;;;;;;;14.85;11.32;;;;;;;;;;6209617;28;20228;-70
2022/05/17 06:19:55;;;;;;;11.13;10.02;;;;;;;;;;6212671;28;20785;-69
2022/05/17 06:23:17;;;;;;;13.07;10.88;;;;;;;;;;6212020;28;20232;-70
2022/05/17 06:26:38;;;;;;;15.95;12.98;;;;;;;;;;6220114;28;20248;-70
2022/05/17 06:29:58;;;;;;;14.05;11.73;;;;;;;;;;6220848;28;20411;-69
2022/05/17 06:33:20;;;;;;;11.95;10.82;;;;;;;;;;6212576;28;20237;-72
2022/05/17 06:36:41;;;;;;;16.00;12.57;;;;;;;;;;6217012;28;20260;-74
2022/05/17 06:40:03;;;;;;;11.63;10.50;;;;;;;;;;6216857;28;20233;-74
2022/05/17 06:43:24;;;;;;;10.63;9.23;;;;;;;;;;6217806;28;20368;-73
2022/05/17 06:46:45;;;;;;;12.82;11.63;;;;;;;;;;6214729;28;20244;-67
2022/05/17 06:50:06;;;;;;;11.80;10.68;;;;;;;;;;6217343;28;20236;-67
2022/05/17 06:53:26;;;;;;;12.75;9.85;;;;;;;;;;6220015;28;20846;-67
2022/05/17 06:56:48;;;;;;;9.57;8.77;;;;;;;;;;6222686;28;20237;-68
2022/05/17 07:00:11;;;;;;;11.68;9.73;;;;;;;;;;6220726;28;20236;-68
2022/05/17 07:03:32;;;;;;;12.85;11.68;;;;;;;;;;6215543;28;20251;-68
2022/05/17 07:06:52;;;;;;;13.38;12.10;;;;;;;;;;6217261;28;20224;-66
2022/05/17 07:13:59;;;;;;;11.88;10.68;;;;;;;;;;6175271;28;20232;-67
2022/05/17 07:17:21;;;;;;;10.57;9.60;;;;;;;;;;6222297;28;20244;-67
2022/05/17 07:20:43;;;;;;;12.82;11.00;;;;;;;;;;6222079;28;20229;-67
2022/05/17 07:24:04;;;;;;;11.85;10.68;;;;;;;;;;6215125;28;20315;-66
2022/05/17 07:27:24;;;;;;;10.75;9.65;;;;;;;;;;6222965;28;20240;-67
2022/05/17 07:30:47;;;;;;;12.93;11.48;;;;;;;;;;6217781;28;20232;-66
2022/05/17 07:34:08;;;;;;;10.68;9.73;;;;;;;;;;6215595;28;20236;-66
2022/05/17 07:37:28;;;;;;;10.57;9.57;;;;;;;;;;6225640;28;20228;-67
2022/05/17 07:40:50;;;;;;;12.55;11.45;;;;;;;;;;6213890;28;20236;-66
2022/05/17 07:44:11;;;;;;;10.20;9.25;;;;;;;;;;6222775;28;20228;-68
2022/05/17 07:47:34;;;;;;;11.18;10.13;;;;;;;;;;6223547;28;20236;-66
2022/05/17 07:50:55;;;;;;;9.60;8.80;;;;;;;;;;6210258;28;20229;-67
2022/05/17 07:54:16;;;;;;;10.48;9.57;;;;;;;;;;6237304;28;20225;-67
2022/05/17 07:57:37;;;;;;;9.35;8.63;;;;;;;;;;6215508;28;20232;-67
2022/05/17 08:00:58;;;;;;;8.88;8.07;;;;;;;;;;6227765;28;20232;-67
2022/05/17 08:04:20;;;;;;;8.65;8.00;;;;;;;;;;6236624;28;20606;-67
2022/05/17 08:07:41;;;;;;;8.65;8.02;;;;;;;;;;6227701;28;20220;-66
2022/05/17 08:11:02;;;;;;;8.07;7.35;;;;;;;;;;6228792;28;20232;-66
2022/05/17 08:14:22;;;;;;;8.23;7.53;;;;;;;;;;6228942;28;20331;-67
2022/05/17 08:17:43;;;;;;;7.38;6.68;;;;;;;;;;6220077;28;20542;-67
2022/05/17 08:21:06;;;;;;;7.45;6.75;;;;;;;;;;6219472;28;20237;-67
2022/05/17 08:24:27;;;;;;;7.63;6.82;;;;;;;;;;6218110;28;20240;-68
2022/05/17 08:27:47;;;;;;;7.43;6.82;;;;;;;;;;6218190;28;20923;-68
2022/05/17 08:31:10;;;;;;;9.57;8.82;;;;;;;;;;6229276;28;20627;-67
2022/05/17 08:34:30;;;;;;;8.95;8.15;;;;;;;;;;6218884;28;20232;-67
2022/05/17 08:37:52;;;;;;;7.43;6.93;;;;;;;;;;6220895;28;20233;-67
2022/05/17 08:41:19;;;;;;;8.43;7.75;;;;;;;;;;6220823;28;20233;-67
2022/05/17 08:44:43;;;;;;;6.50;6.00;;;;;;;;;;6212923;28;20228;-71
2022/05/17 08:48:05;;;;;;;8.50;7.72;;;;;;;;;;6206531;28;20237;-68
2022/05/17 08:51:26;;;;;;;8.27;7.68;;;;;;;;;;6216936;28;20232;-68
2022/05/17 08:54:50;;;;;;;5.85;5.30;;;;;;;;;;6211680;28;20229;-68
2022/05/17 08:58:13;;;;;;;5.60;5.20;;;;;;;;;;6212917;28;20237;-67
2022/05/17 09:01:38;;;;;;;4.55;4.15;;;;;;;;;;6213004;28;20529;-68
2022/05/17 09:05:03;;;;;;;4.82;4.50;;;;;;;;;;6214925;28;20232;-67
2022/05/17 09:08:26;;;;;;;7.80;7.10;;;;;;;;;;6222050;28;20249;-68
2022/05/17 09:11:52;;;;;;;7.13;6.63;;;;;;;;;;6228576;28;20240;-68
2022/05/17 09:15:14;;;;;;;6.05;5.57;;;;;;;;;;6226825;28;20224;-68
2022/05/17 09:18:37;;;;;;;5.28;4.88;;;;;;;;;;6224952;28;20647;-67
2022/05/17 09:22:00;;;;;;;5.57;5.18;;;;;;;;;;6208979;28;20626;-68
2022/05/17 09:25:22;;;;;;;6.38;5.93;;;;;;;;;;6222640;28;20232;-67
2022/05/17 09:28:49;;;;;;;6.55;5.97;;;;;;;;;;6210049;28;20213;-67
2022/05/17 09:32:11;;;;;;;7.43;6.80;;;;;;;;;;6224908;28;20939;-67
2022/05/17 09:35:32;;;;;;;7.25;6.68;;;;;;;;;;6222527;28;20240;-69
2022/05/17 09:38:54;;;;;;;6.63;6.13;;;;;;;;;;6221122;28;20244;-66
2022/05/17 09:42:20;;;;;;;5.47;5.07;;;;;;;;;;6222547;28;20224;-69
2022/05/17 09:45:49;;;;;;;7.57;6.88;;;;;;;;;;6219853;28;20241;-68
2022/05/17 09:53:00;;;;;;;6.95;6.13;;;;;;;;;;6221951;28;20224;-68
2022/05/17 09:56:25;;;;;;;5.25;4.85;;;;;;;;;;6222290;28;20582;-68
2022/05/17 09:59:47;;;;;;;4.25;3.95;;;;;;;;;;6210567;28;20236;-67
2022/05/17 10:03:21;;;;;;;4.32;3.90;;;;;;;;;;6220787;28;20232;-68
2022/05/17 10:06:43;;;;;;;4.15;3.85;;;;;;;;;;6219087;28;20558;-67
2022/05/17 10:10:09;;;;;;;4.13;3.88;;;;;;;;;;6217000;28;20232;-66
2022/05/17 10:13:32;;;;;;;5.82;5.32;;;;;;;;;;6215535;28;20256;-67
2022/05/17 10:16:55;;;;;;;4.85;4.45;;;;;;;;;;6224803;28;20320;-66
2022/05/17 10:20:21;;;;;;;4.85;4.45;;;;;;;;;;6220533;28;20240;-68
2022/05/17 10:23:45;;;;;;;4.22;3.92;;;;;;;;;;6221763;28;20246;-66
2022/05/17 10:27:09;;;;;;;3.53;3.22;;;;;;;;;;6226114;28;20240;-67
2022/05/17 10:30:34;;;;;;;3.50;3.20;;;;;;;;;;6223377;28;20237;-68
2022/05/17 10:34:02;;;;;;;3.60;3.22;;;;;;;;;;6224113;28;20232;-67
2022/05/17 10:37:27;;;;;;;3.17;2.97;;;;;;;;;;6224628;28;20232;-68
2022/05/17 10:40:48;;;;;;;2.97;2.78;;;;;;;;;;6226498;28;20232;-67
2022/05/17 10:44:09;;;;;;;4.28;3.97;;;;;;;;;;6225000;28;20247;-68
2022/05/17 10:47:37;;;;;;;2.63;2.53;;;;;;;;;;6224241;28;20233;-67
2022/05/17 10:50:59;;;;;;;3.17;2.97;;;;;;;;;;6216112;28;20248;-73
2022/05/17 10:54:27;;;;;;;3.08;2.88;;;;;;;;;;6207718;28;20786;-68
2022/05/17 10:57:52;;;;;;;3.30;3.03;;;;;;;;;;6225338;28;20256;-67
2022/05/17 11:01:17;;;;;;;3.65;3.33;;;;;;;;;;6226176;28;20232;-67
2022/05/17 11:05:02;;;;;;;3.22;3.03;;;;;;;;;;6224419;28;20551;-69
2022/05/17 11:08:26;;;;;;;2.67;2.47;;;;;;;;;;6219809;28;20225;-68
2022/05/17 11:11:55;;;;;;;2.83;2.63;;;;;;;;;;6229161;28;20232;-67
2022/05/17 11:15:18;;;;;;;3.13;2.92;;;;;;;;;;6223935;28;20311;-68
2022/05/17 11:18:42;;;;;;;2.83;2.63;;;;;;;;;;6223293;28;20232;-69
2022/05/17 11:22:07;;;;;;;2.88;2.67;;;;;;;;;;6223635;28;22945;-67
2022/05/17 11:25:40;;;;;;;3.42;3.22;;;;;;;;;;6221930;28;20942;-67
2022/05/17 11:29:15;;;;;;;2.95;2.33;;;;;;;;;;6225915;28;20669;-68
2022/05/17 11:32:36;;;;;;;2.58;2.40;;;;;;;;;;6221828;28;20914;-68
2022/05/17 11:35:57;;;;;;;3.50;3.30;;;;;;;;;;6220694;28;20237;-67
2022/05/17 11:39:41;;;;;;;2.90;2.70;;;;;;;;;;6214532;28;20955;-67
2022/05/17 11:46:48;;;;;;;3.05;2.85;;;;;;;;;;6218531;28;20586;-68
2022/05/17 11:50:21;;;;;;;2.28;2.17;;;;;;;;;;6204063;28;20232;-68
2022/05/17 11:53:44;;;;;;;2.55;2.38;;;;;;;;;;6218139;28;20229;-66
2022/05/17 11:57:04;;;;;;;3.47;3.17;;;;;;;;;;6218009;28;20228;-68
2022/05/17 12:00:36;;;;;;;2.30;2.05;;;;;;;;;;6208865;28;21701;-67
2022/05/17 12:03:58;;;;;;;2.40;2.20;;;;;;;;;;6225916;28;20358;-68
2022/05/17 12:07:20;;;;;;;2.72;2.53;;;;;;;;;;6206448;28;20228;-68
2022/05/17 12:10:41;;;;;;;2.70;2.60;;;;;;;;;;6228709;28;20240;-69
2022/05/17 12:14:08;;;;;;;3.35;3.10;;;;;;;;;;6220385;28;20244;-68
2022/05/17 12:17:31;;;;;;;2.88;2.67;;;;;;;;;;6218384;28;20339;-68
2022/05/17 12:21:05;;;;;;;2.83;2.30;;;;;;;;;;6219850;28;20260;-65
2022/05/17 12:24:29;;;;;;;3.25;3.05;;;;;;;;;;6224926;28;20625;-68
2022/05/17 12:27:50;;;;;;;2.92;2.47;;;;;;;;;;6185816;28;20236;-67
2022/05/17 12:31:12;;;;;;;3.35;3.05;;;;;;;;;;6219243;28;20311;-69
2022/05/17 12:34:32;;;;;;;3.47;3.13;;;;;;;;;;6197533;28;20323;-69
2022/05/17 12:37:56;;;;;;;3.13;2.92;;;;;;;;;;6215267;28;20232;-66
2022/05/17 12:45:02;;;;;;;3.58;3.25;;;;;;;;;;6178966;28;20240;-65
2022/05/17 12:48:29;;;;;;;3.38;3.08;;;;;;;;;;6196321;28;20645;-66
2022/05/17 12:51:52;;;;;;;3.63;3.33;;;;;;;;;;6221701;28;20229;-67
2022/05/17 12:55:18;;;;;;;4.43;3.90;;;;;;;;;;6210081;28;20240;-67
2022/05/17 12:58:48;;;;;;;3.92;3.55;;;;;;;;;;6209571;28;20308;-67
2022/05/17 13:02:09;;;;;;;3.65;3.45;;;;;;;;;;6211936;28;20461;-69
2022/05/17 13:05:32;;;;;;;2.97;2.80;;;;;;;;;;6220552;28;20775;-66
2022/05/17 13:08:57;;;;;;;5.00;4.60;;;;;;;;;;6213637;28;20221;-66
2022/05/17 13:12:19;;;;;;;4.00;3.70;;;;;;;;;;6218985;28;20249;-66
2022/05/17 13:15:40;;;;;;;3.60;3.30;;;;;;;;;;6220518;28;20236;-67
2022/05/17 13:19:02;;;;;;;3.92;3.63;;;;;;;;;;6219387;28;20228;-69
2022/05/17 13:22:24;;;;;;;4.07;3.67;;;;;;;;;;6218514;28;20229;-67
2022/05/17 13:25:46;;;;;;;3.80;3.50;;;;;;;;;;6221883;28;20260;-68
2022/05/17 13:29:19;;;;;;;3.67;3.42;;;;;;;;;;6219950;28;20673;-66
2022/05/17 13:32:41;;;;;;;3.38;3.15;;;;;;;;;;6218841;28;20327;-67
2022/05/17 13:36:12;;;;;;;4.25;3.88;;;;;;;;;;6220232;28;20220;-68
2022/05/17 13:39:40;;;;;;;4.50;3.58;;;;;;;;;;6217173;28;20252;-67
2022/05/17 13:43:00;;;;;;;4.50;4.10;;;;;;;;;;6217149;28;20231;-69
2022/05/17 13:46:23;;;;;;;3.63;3.33;;;;;;;;;;6212763;28;20772;-68
2022/05/17 13:49:47;;;;;;;5.90;4.38;;;;;;;;;;6214509;28;20232;-68
2022/05/17 13:53:09;;;;;;;4.32;3.80;;;;;;;;;;6219289;28;20248;-67
2022/05/17 13:56:32;;;;;;;4.63;4.22;;;;;;;;;;6221094;28;20315;-64
2022/05/17 13:59:54;;;;;;;4.88;4.32;;;;;;;;;;6204930;28;20224;-66
2022/05/17 14:03:19;;;;;;;4.18;3.78;;;;;;;;;;6212045;28;20232;-68
2022/05/17 14:06:44;;;;;;;3.80;3.10;;;;;;;;;;6213377;28;21640;-75
2022/05/17 14:13:45;;;;;;;5.32;4.93;;;;;;;;;;6218172;28;21529;-79
2022/05/17 14:17:08;;;;;;;5.07;4.57;;;;;;;;;;6217953;28;20249;-78
2022/05/17 14:20:30;;;;;;;4.05;3.50;;;;;;;;;;6226098;28;20237;-76
2022/05/17 14:23:52;;;;;;;4.32;3.88;;;;;;;;;;6223509;28;20225;-77
2022/05/17 14:27:13;;;;;;;3.95;3.65;;;;;;;;;;6222545;28;20525;-78
2022/05/17 14:30:34;;;;;;;3.00;2.80;;;;;;;;;;6219304;28;20665;-77
2022/05/17 14:33:55;;;;;;;3.95;3.65;;;;;;;;;;6225875;28;20229;-78
2022/05/17 14:37:17;;;;;;;4.30;4.00;;;;;;;;;;6219967;28;20229;-77
2022/05/17 14:40:38;;;;;;;3.53;3.22;;;;;;;;;;6217230;28;20240;-68
2022/05/17 14:43:59;;;;;;;3.35;3.05;;;;;;;;;;6215721;28;20233;-69
2022/05/17 14:47:22;;;;;;;3.80;3.47;;;;;;;;;;6222469;28;20236;-70
2022/05/17 14:50:42;;;;;;;2.88;2.58;;;;;;;;;;6216288;28;20237;-70
2022/05/17 14:54:07;;;;;;;2.80;2.63;;;;;;;;;;6222712;28;20233;-70
2022/05/17 14:57:28;;;;;;;2.60;2.40;;;;;;;;;;6217985;28;20500;-70
2022/05/17 15:00:49;;;;;;;2.92;2.63;;;;;;;;;;6211387;28;20225;-71
2022/05/17 15:04:11;;;;;;;4.57;3.25;;;;;;;;;;6217130;28;20538;-70
2022/05/17 15:07:33;;;;;;;3.40;3.10;;;;;;;;;;6220233;28;20228;-70
2022/05/17 15:10:55;;;;;;;3.30;3.10;;;;;;;;;;6227366;28;20224;-71
2022/05/17 15:14:15;;;;;;;5.95;3.30;;;;;;;;;;6222067;28;20236;-70
2022/05/17 15:17:38;;;;;;;2.63;2.42;;;;;;;;;;6222855;28;20236;-69
2022/05/17 15:20:59;;;;;;;4.13;2.95;;;;;;;;;;6218858;28;20240;-69
2022/05/17 15:24:19;;;;;;;2.15;2.05;;;;;;;;;;6222810;28;20222;-67
2022/05/17 15:27:42;;;;;;;2.40;2.20;;;;;;;;;;6220436;28;20240;-70
2022/05/17 15:31:03;;;;;;;2.60;2.40;;;;;;;;;;6217239;28;20311;-69
2022/05/17 15:34:23;;;;;;;1.92;1.73;;;;;;;;;;6219261;28;20311;-69
2022/05/17 15:37:44;;;;;;;2.22;2.13;;;;;;;;;;6214931;28;20311;-70
2022/05/17 15:41:05;;;;;;;3.55;3.20;;;;;;;;;;6216911;28;20247;-70
2022/05/17 15:44:27;;;;;;;2.70;2.50;;;;;;;;;;6221260;28;20989;-70
2022/05/17 15:55:10;;;;;;;3.88;3.40;;;;;;;;;;6218997;28;21862;-69
2022/05/17 15:58:34;;;;;;;5.28;3.67;;;;;;;;;;6212542;28;20232;-70
2022/05/17 16:01:56;;;;;;;4.22;3.83;;;;;;;;;;6216350;28;20590;-74
2022/05/17 16:05:16;;;;;;;4.88;4.47;;;;;;;;;;6212033;28;20236;-73
2022/05/17 16:08:37;;;;;;;4.50;4.00;;;;;;;;;;6214638;28;20232;-74
2022/05/17 16:11:58;;;;;;;4.78;4.38;;;;;;;;;;6223189;28;20229;-75
2022/05/17 16:15:18;;;;;;;5.78;4.03;;;;;;;;;;6218980;28;20229;-74
2022/05/17 16:18:42;;;;;;;5.50;5.05;;;;;;;;;;6216413;28;20484;-73
2022/05/17 16:22:08;;;;;;;5.28;4.68;;;;;;;;;;6221849;28;21031;-74
2022/05/17 16:25:28;;;;;;;5.57;5.07;;;;;;;;;;6212409;28;20233;-73
2022/05/17 16:28:49;;;;;;;4.57;4.18;;;;;;;;;;6223478;28;20250;-73
2022/05/17 16:32:12;;;;;;;4.35;3.95;;;;;;;;;;6223011;28;20323;-68
2022/05/17 16:35:37;;;;;;;3.75;3.45;;;;;;;;;;6223038;28;20905;-68
2022/05/17 16:38:58;;;;;;;4.88;4.40;;;;;;;;;;6223389;28;20236;-68
2022/05/17 16:42:19;;;;;;;4.93;4.53;;;;;;;;;;6222731;28;20587;-68
2022/05/17 16:45:43;;;;;;;5.13;4.65;;;;;;;;;;6222255;28;20568;-67
2022/05/17 16:49:07;;;;;;;5.30;3.58;;;;;;;;;;6222245;28;20225;-68
2022/05/17 16:52:29;;;;;;;5.63;5.22;;;;;;;;;;6223549;28;20232;-68
2022/05/17 16:55:50;;;;;;;4.28;3.75;;;;;;;;;;6223842;28;20224;-68
2022/05/17 16:59:11;;;;;;;5.32;4.82;;;;;;;;;;6217882;28;20323;-68
2022/05/17 17:02:33;;;;;;;5.88;5.38;;;;;;;;;;6224191;28;20232;-68
2022/05/17 17:05:54;;;;;;;7.13;6.15;;;;;;;;;;6211008;28;20229;-73
2022/05/17 17:09:20;;;;;;;5.30;4.90;;;;;;;;;;6213733;28;20228;-68
2022/05/17 17:12:41;;;;;;;6.85;5.25;;;;;;;;;;6217553;28;20228;-66
2022/05/17 17:16:02;;;;;;;5.65;5.15;;;;;;;;;;6208127;28;20233;-66
2022/05/17 17:19:22;;;;;;;7.03;6.45;;;;;;;;;;6203083;28;20505;-66
2022/05/17 17:22:43;;;;;;;6.00;5.50;;;;;;;;;;6204213;28;20232;-65
2022/05/17 17:26:06;;;;;;;6.38;5.78;;;;;;;;;;6206467;28;20324;-67
2022/05/17 17:29:26;;;;;;;6.10;5.60;;;;;;;;;;6203891;28;20228;-66
2022/05/17 17:40:08;;;;;;;7.65;7.05;;;;;;;;;;6201964;28;20363;-67
2022/05/17 17:43:31;;;;;;;8.00;7.30;;;;;;;;;;6199031;28;20255;-67
2022/05/17 17:46:52;;;;;;;9.18;8.48;;;;;;;;;;6197056;28;20228;-67
2022/05/17 17:50:12;;;;;;;7.22;5.70;;;;;;;;;;6205152;28;20315;-67
2022/05/17 17:53:34;;;;;;;6.82;6.18;;;;;;;;;;6211964;28;20220;-68
2022/05/17 17:56:54;;;;;;;5.93;5.50;;;;;;;;;;6203028;28;20228;-67
2022/05/17 18:00:17;;;;;;;5.43;4.93;;;;;;;;;;6207148;28;20232;-67
2022/05/17 18:03:38;;;;;;;6.57;6.07;;;;;;;;;;6209665;28;20248;-67
2022/05/17 18:06:59;;;;;;;6.35;5.18;;;;;;;;;;6212765;28;20256;-68
2022/05/17 18:10:20;;;;;;;6.00;5.60;;;;;;;;;;6196893;28;20224;-67
2022/05/17 18:13:42;;;;;;;6.40;5.80;;;;;;;;;;6205532;28;20232;-68
2022/05/17 18:17:06;;;;;;;6.75;6.13;;;;;;;;;;6210879;28;20229;-67
2022/05/17 18:20:28;;;;;;;6.32;5.72;;;;;;;;;;6208058;28;20232;-67
2022/05/17 18:23:48;;;;;;;6.45;5.95;;;;;;;;;;6214628;28;20248;-66
2022/05/17 18:27:09;;;;;;;6.55;5.78;;;;;;;;;;6210318;28;20259;-66
2022/05/17 18:30:30;;;;;;;6.28;5.68;;;;;;;;;;6207708;28;20236;-66
2022/05/17 18:33:52;;;;;;;6.32;5.70;;;;;;;;;;6214695;28;20240;-66
2022/05/17 18:37:16;;;;;;;5.57;5.10;;;;;;;;;;6207966;28;20638;-69
2022/05/17 18:40:39;;;;;;;6.50;5.90;;;;;;;;;;6216857;28;20233;-70
2022/05/17 18:44:00;;;;;;;7.38;6.75;;;;;;;;;;6216536;28;20256;-69
2022/05/17 18:47:23;;;;;;;7.90;7.30;;;;;;;;;;6217008;28;20335;-69
2022/05/17 18:50:46;;;;;;;7.70;6.85;;;;;;;;;;6216533;28;20256;-69
2022/05/17 18:54:07;;;;;;;7.63;6.93;;;;;;;;;;6221555;28;20248;-69
2022/05/17 18:57:29;;;;;;;6.90;6.28;;;;;;;;;;6218451;28;20236;-72
2022/05/17 19:00:51;;;;;;;8.63;7.90;;;;;;;;;;6210302;28;20244;-73
2022/05/17 19:04:11;;;;;;;11.27;9.90;;;;;;;;;;6217973;28;20236;-74
2022/05/17 19:14:51;;;;;;;8.80;8.07;;;;;;;;;;6217197;28;20233;-69
2022/05/17 19:18:12;;;;;;;9.20;8.40;;;;;;;;;;6210193;28;20229;-67
2022/05/17 19:21:33;;;;;;;9.80;9.00;;;;;;;;;;6212687;28;20224;-69
2022/05/17 19:24:56;;;;;;;11.32;10.18;;;;;;;;;;6217980;28;20326;-69
2022/05/17 19:28:16;;;;;;;10.55;9.75;;;;;;;;;;6214833;28;22057;-67
2022/05/17 19:31:39;;;;;;;10.25;9.35;;;;;;;;;;6219590;28;20520;-68
2022/05/17 19:35:00;;;;;;;10.63;9.73;;;;;;;;;;6218827;28;20236;-68
2022/05/17 19:42:02;;;;;;;9.43;8.63;;;;;;;;;;6216009;28;20236;-68
2022/05/17 19:45:24;;;;;;;10.15;9.25;;;;;;;;;;6220319;28;20233;-68
2022/05/17 19:48:47;;;;;;;10.60;9.55;;;;;;;;;;6200144;28;20229;-68
2022/05/17 19:52:08;;;;;;;10.52;9.68;;;;;;;;;;6205556;28;20520;-68
2022/05/17 19:55:29;;;;;;;11.68;10.57;;;;;;;;;;6207795;28;20824;-69
2022/05/17 19:58:51;;;;;;;10.65;9.75;;;;;;;;;;6221982;28;20232;-69
2022/05/17 20:02:13;;;;;;;10.40;9.45;;;;;;;;;;6220898;28;20665;-69
2022/05/17 20:05:33;;;;;;;13.73;12.52;;;;;;;;;;6225429;28;20236;-68
2022/05/17 20:08:54;;;;;;;12.15;11.10;;;;;;;;;;6222445;28;20236;-68
2022/05/17 20:12:16;;;;;;;10.95;9.90;;;;;;;;;;6229009;28;20653;-70
2022/05/17 20:15:37;;;;;;;11.93;11.02;;;;;;;;;;6228568;28;20681;-68
2022/05/17 20:18:59;;;;;;;11.52;10.50;;;;;;;;;;6232406;28;20842;-69
2022/05/17 20:22:19;;;;;;;12.07;10.93;;;;;;;;;;6219702;28;20926;-68
2022/05/17 20:25:40;;;;;;;12.27;11.02;;;;;;;;;;6221573;28;20331;-71
2022/05/17 20:29:01;;;;;;;11.98;10.98;;;;;;;;;;6221289;28;20232;-68
2022/05/17 20:32:24;;;;;;;10.43;9.52;;;;;;;;;;6228677;28;20233;-68
2022/05/17 20:35:45;;;;;;;11.98;10.98;;;;;;;;;;6225976;28;20228;-69
2022/05/17 20:39:06;;;;;;;12.20;11.18;;;;;;;;;;6222245;28;20225;-68
2022/05/17 20:42:28;;;;;;;12.35;11.35;;;;;;;;;;6218988;28;20225;-70
2022/05/17 20:45:49;;;;;;;12.20;11.10;;;;;;;;;;6222561;28;20232;-69
2022/05/17 20:49:10;;;;;;;12.00;11.10;;;;;;;;;;6221811;28;20243;-69
2022/05/17 20:52:31;;;;;;;13.57;12.30;;;;;;;;;;6225888;28;20569;-68
2022/05/17 20:55:51;;;;;;;12.75;11.65;;;;;;;;;;6219897;28;20224;-68